sensor_id;sensor_type;location;lat;lon;timestamp;temperature;humidity
58554;DHT22;48119;53.218;6.576;2023-05-07T00:00:45;15.50;99.90
58554;DHT22;48119;53.218;6.576;2023-05-07T00:03:12;15.50;99.90
58554;DHT22;48119;53.218;6.576;2023-05-07T00:05:39;15.40;99.90
58554;DHT22;48119;53.218;6.576;2023-05-07T00:08:05;15.40;99.90
58554;DHT22;48119;53.218;6.576;2023-05-07T00:10:31;15.40;99.90
58554;DHT22;48119;53.218;6.576;2023-05-07T00:12:57;15.50;99.90
58554;DHT22;48119;53.218;6.576;2023-05-07T00:15:22;15.40;99.90
58554;DHT22;48119;53.218;6.576;2023-05-07T00:17:48;15.40;99.90
58554;DHT22;48119;53.218;6.576;2023-05-07T00:20:17;15.40;99.90
58554;DHT22;48119;53.218;6.576;2023-05-07T00:22:42;15.40;99.90
58554;DHT22;48119;53.218;6.576;2023-05-07T00:25:08;15.40;99.90
58554;DHT22;48119;53.218;6.576;2023-05-07T00:27:35;15.40;99.90
58554;DHT22;48119;53.218;6.576;2023-05-07T00:30:01;15.30;99.90
58554;DHT22;48119;53.218;6.576;2023-05-07T00:32:27;15.30;99.90
58554;DHT22;48119;53.218;6.576;2023-05-07T00:34:52;15.30;99.90
58554;DHT22;48119;53.218;6.576;2023-05-07T00:37:18;15.30;99.90
58554;DHT22;48119;53.218;6.576;2023-05-07T00:39:44;15.30;99.90
58554;DHT22;48119;53.218;6.576;2023-05-07T00:42:10;15.30;99.90
58554;DHT22;48119;53.218;6.576;2023-05-07T00:44:39;15.20;99.90
58554;DHT22;48119;53.218;6.576;2023-05-07T00:47:05;15.20;99.90
58554;DHT22;48119;53.218;6.576;2023-05-07T00:49:39;15.20;99.90
58554;DHT22;48119;53.218;6.576;2023-05-07T00:52:06;15.20;99.90
58554;DHT22;48119;53.218;6.576;2023-05-07T00:54:34;15.20;99.90
58554;DHT22;48119;53.218;6.576;2023-05-07T00:57:01;15.10;99.90
58554;DHT22;48119;53.218;6.576;2023-05-07T00:59:27;15.10;99.90
58554;DHT22;48119;53.218;6.576;2023-05-07T01:01:53;15.10;99.90
58554;DHT22;48119;53.218;6.576;2023-05-07T01:04:19;15.10;99.90
58554;DHT22;48119;53.218;6.576;2023-05-07T01:06:45;15.10;99.90
58554;DHT22;48119;53.218;6.576;2023-05-07T01:09:12;15.10;99.90
58554;DHT22;48119;53.218;6.576;2023-05-07T01:11:39;15.10;99.90
58554;DHT22;48119;53.218;6.576;2023-05-07T01:14:05;15.10;99.90
58554;DHT22;48119;53.218;6.576;2023-05-07T01:16:33;15.00;99.90
58554;DHT22;48119;53.218;6.576;2023-05-07T01:18:59;15.00;99.90
58554;DHT22;48119;53.218;6.576;2023-05-07T01:21:26;15.00;99.90
58554;DHT22;48119;53.218;6.576;2023-05-07T01:23:53;15.00;99.90
58554;DHT22;48119;53.218;6.576;2023-05-07T01:26:20;14.90;99.90
58554;DHT22;48119;53.218;6.576;2023-05-07T01:28:47;14.90;99.90
58554;DHT22;48119;53.218;6.576;2023-05-07T01:31:14;14.90;99.90
58554;DHT22;48119;53.218;6.576;2023-05-07T01:33:42;14.90;99.90
58554;DHT22;48119;53.218;6.576;2023-05-07T01:36:09;14.80;99.90
58554;DHT22;48119;53.218;6.576;2023-05-07T01:38:37;14.80;99.90
58554;DHT22;48119;53.218;6.576;2023-05-07T01:41:03;14.80;99.90
58554;DHT22;48119;53.218;6.576;2023-05-07T01:43:30;14.80;99.90
58554;DHT22;48119;53.218;6.576;2023-05-07T01:45:57;14.80;99.90
58554;DHT22;48119;53.218;6.576;2023-05-07T01:48:24;14.80;99.90
58554;DHT22;48119;53.218;6.576;2023-05-07T01:50:51;14.70;99.90
58554;DHT22;48119;53.218;6.576;2023-05-07T01:53:18;14.70;99.90
58554;DHT22;48119;53.218;6.576;2023-05-07T01:55:43;14.70;99.90
58554;DHT22;48119;53.218;6.576;2023-05-07T01:58:09;14.70;99.90
58554;DHT22;48119;53.218;6.576;2023-05-07T02:00:36;14.70;99.90
58554;DHT22;48119;53.218;6.576;2023-05-07T02:03:02;14.70;99.90
58554;DHT22;48119;53.218;6.576;2023-05-07T02:05:27;14.70;99.90
58554;DHT22;48119;53.218;6.576;2023-05-07T02:07:53;14.70;99.90
58554;DHT22;48119;53.218;6.576;2023-05-07T02:10:19;14.70;99.90
58554;DHT22;48119;53.218;6.576;2023-05-07T02:12:45;14.70;99.90
58554;DHT22;48119;53.218;6.576;2023-05-07T02:15:10;14.70;99.90
58554;DHT22;48119;53.218;6.576;2023-05-07T02:17:39;14.70;99.90
58554;DHT22;48119;53.218;6.576;2023-05-07T02:20:24;14.70;99.90
58554;DHT22;48119;53.218;6.576;2023-05-07T02:22:50;14.70;99.90
58554;DHT22;48119;53.218;6.576;2023-05-07T02:25:16;14.70;99.90
58554;DHT22;48119;53.218;6.576;2023-05-07T02:27:41;14.60;99.90
58554;DHT22;48119;53.218;6.576;2023-05-07T02:30:07;14.60;99.90
58554;DHT22;48119;53.218;6.576;2023-05-07T02:32:33;14.60;99.90
58554;DHT22;48119;53.218;6.576;2023-05-07T02:34:59;14.60;99.90
58554;DHT22;48119;53.218;6.576;2023-05-07T02:37:25;14.60;99.90
58554;DHT22;48119;53.218;6.576;2023-05-07T02:39:50;14.60;99.90
58554;DHT22;48119;53.218;6.576;2023-05-07T02:42:16;14.60;99.90
58554;DHT22;48119;53.218;6.576;2023-05-07T02:44:42;14.60;99.90
58554;DHT22;48119;53.218;6.576;2023-05-07T02:47:08;14.60;99.90
58554;DHT22;48119;53.218;6.576;2023-05-07T02:49:35;14.60;99.90
58554;DHT22;48119;53.218;6.576;2023-05-07T02:52:01;14.60;99.90
58554;DHT22;48119;53.218;6.576;2023-05-07T02:54:27;14.60;99.90
58554;DHT22;48119;53.218;6.576;2023-05-07T02:56:52;14.60;99.90
58554;DHT22;48119;53.218;6.576;2023-05-07T02:59:18;14.50;99.90
58554;DHT22;48119;53.218;6.576;2023-05-07T03:01:45;14.50;99.90
58554;DHT22;48119;53.218;6.576;2023-05-07T03:04:11;14.50;99.90
58554;DHT22;48119;53.218;6.576;2023-05-07T03:06:37;14.50;99.90
58554;DHT22;48119;53.218;6.576;2023-05-07T03:09:03;14.50;99.90
58554;DHT22;48119;53.218;6.576;2023-05-07T03:11:28;14.50;99.90
58554;DHT22;48119;53.218;6.576;2023-05-07T03:13:54;14.50;99.90
58554;DHT22;48119;53.218;6.576;2023-05-07T03:16:20;14.50;99.90
58554;DHT22;48119;53.218;6.576;2023-05-07T03:18:46;14.50;99.90
58554;DHT22;48119;53.218;6.576;2023-05-07T03:21:11;14.50;99.90
58554;DHT22;48119;53.218;6.576;2023-05-07T03:23:37;14.50;99.90
58554;DHT22;48119;53.218;6.576;2023-05-07T03:26:03;14.50;99.90
58554;DHT22;48119;53.218;6.576;2023-05-07T03:28:29;14.50;99.90
58554;DHT22;48119;53.218;6.576;2023-05-07T03:30:55;14.50;99.90
58554;DHT22;48119;53.218;6.576;2023-05-07T03:33:21;14.40;99.90
58554;DHT22;48119;53.218;6.576;2023-05-07T03:35:46;14.50;99.90
58554;DHT22;48119;53.218;6.576;2023-05-07T03:38:12;14.50;99.90
58554;DHT22;48119;53.218;6.576;2023-05-07T03:40:38;14.40;99.90
58554;DHT22;48119;53.218;6.576;2023-05-07T03:43:04;14.50;99.90
58554;DHT22;48119;53.218;6.576;2023-05-07T03:45:29;14.40;99.90
58554;DHT22;48119;53.218;6.576;2023-05-07T03:47:55;14.40;99.90
58554;DHT22;48119;53.218;6.576;2023-05-07T03:50:21;14.40;99.90
58554;DHT22;48119;53.218;6.576;2023-05-07T03:52:47;14.40;99.90
58554;DHT22;48119;53.218;6.576;2023-05-07T03:55:12;14.40;99.90
58554;DHT22;48119;53.218;6.576;2023-05-07T03:57:38;14.30;99.90
58554;DHT22;48119;53.218;6.576;2023-05-07T04:00:04;14.30;99.90
58554;DHT22;48119;53.218;6.576;2023-05-07T04:02:31;14.20;99.90
58554;DHT22;48119;53.218;6.576;2023-05-07T04:04:56;14.20;99.90
58554;DHT22;48119;53.218;6.576;2023-05-07T04:07:22;14.20;99.90
58554;DHT22;48119;53.218;6.576;2023-05-07T04:09:48;14.20;99.90
58554;DHT22;48119;53.218;6.576;2023-05-07T04:12:14;14.20;99.90
58554;DHT22;48119;53.218;6.576;2023-05-07T04:14:40;14.20;99.90
58554;DHT22;48119;53.218;6.576;2023-05-07T04:17:06;14.20;99.90
58554;DHT22;48119;53.218;6.576;2023-05-07T04:19:33;14.20;99.90
58554;DHT22;48119;53.218;6.576;2023-05-07T04:21:59;14.20;99.90
58554;DHT22;48119;53.218;6.576;2023-05-07T04:24:25;14.20;99.90
58554;DHT22;48119;53.218;6.576;2023-05-07T04:26:50;14.20;99.90
58554;DHT22;48119;53.218;6.576;2023-05-07T04:29:16;14.20;99.90
58554;DHT22;48119;53.218;6.576;2023-05-07T04:31:42;14.20;99.90
58554;DHT22;48119;53.218;6.576;2023-05-07T04:34:12;14.20;99.90
58554;DHT22;48119;53.218;6.576;2023-05-07T04:36:39;14.20;99.90
58554;DHT22;48119;53.218;6.576;2023-05-07T04:39:05;14.10;99.90
58554;DHT22;48119;53.218;6.576;2023-05-07T04:41:32;14.10;99.90
58554;DHT22;48119;53.218;6.576;2023-05-07T04:43:58;14.10;99.90
58554;DHT22;48119;53.218;6.576;2023-05-07T04:46:24;14.20;99.90
58554;DHT22;48119;53.218;6.576;2023-05-07T04:48:51;14.10;99.90
58554;DHT22;48119;53.218;6.576;2023-05-07T04:51:16;14.10;99.90
58554;DHT22;48119;53.218;6.576;2023-05-07T04:53:42;14.10;99.90
58554;DHT22;48119;53.218;6.576;2023-05-07T04:56:08;14.00;99.90
58554;DHT22;48119;53.218;6.576;2023-05-07T04:58:34;14.00;99.90
58554;DHT22;48119;53.218;6.576;2023-05-07T05:01:00;13.90;99.90
58554;DHT22;48119;53.218;6.576;2023-05-07T05:03:27;13.90;99.90
58554;DHT22;48119;53.218;6.576;2023-05-07T05:05:53;13.90;99.90
58554;DHT22;48119;53.218;6.576;2023-05-07T05:08:18;13.90;99.90
58554;DHT22;48119;53.218;6.576;2023-05-07T05:10:44;13.90;99.90
58554;DHT22;48119;53.218;6.576;2023-05-07T05:13:10;13.90;99.90
58554;DHT22;48119;53.218;6.576;2023-05-07T05:15:38;13.90;99.90
58554;DHT22;48119;53.218;6.576;2023-05-07T05:18:04;13.90;99.90
58554;DHT22;48119;53.218;6.576;2023-05-07T05:20:30;13.90;99.90
58554;DHT22;48119;53.218;6.576;2023-05-07T05:22:56;13.90;99.90
58554;DHT22;48119;53.218;6.576;2023-05-07T05:25:22;13.90;99.90
58554;DHT22;48119;53.218;6.576;2023-05-07T05:27:48;13.90;99.90
58554;DHT22;48119;53.218;6.576;2023-05-07T05:30:14;13.80;99.90
58554;DHT22;48119;53.218;6.576;2023-05-07T05:32:39;13.80;99.90
58554;DHT22;48119;53.218;6.576;2023-05-07T05:35:05;13.80;99.90
58554;DHT22;48119;53.218;6.576;2023-05-07T05:37:31;13.80;99.90
58554;DHT22;48119;53.218;6.576;2023-05-07T05:39:57;13.90;99.90
58554;DHT22;48119;53.218;6.576;2023-05-07T05:42:23;13.90;99.90
58554;DHT22;48119;53.218;6.576;2023-05-07T05:44:49;13.90;99.90
58554;DHT22;48119;53.218;6.576;2023-05-07T05:47:14;13.90;99.90
58554;DHT22;48119;53.218;6.576;2023-05-07T05:49:40;13.80;99.90
58554;DHT22;48119;53.218;6.576;2023-05-07T05:52:12;13.90;99.90
58554;DHT22;48119;53.218;6.576;2023-05-07T05:54:39;13.80;99.90
58554;DHT22;48119;53.218;6.576;2023-05-07T05:57:05;13.80;99.90
58554;DHT22;48119;53.218;6.576;2023-05-07T05:59:31;13.80;99.90
58554;DHT22;48119;53.218;6.576;2023-05-07T06:01:57;13.80;99.90
58554;DHT22;48119;53.218;6.576;2023-05-07T06:04:23;13.80;99.90
58554;DHT22;48119;53.218;6.576;2023-05-07T06:06:48;13.70;99.90
58554;DHT22;48119;53.218;6.576;2023-05-07T06:09:14;13.80;99.90
58554;DHT22;48119;53.218;6.576;2023-05-07T06:11:40;13.80;99.90
58554;DHT22;48119;53.218;6.576;2023-05-07T06:14:06;13.80;99.90
58554;DHT22;48119;53.218;6.576;2023-05-07T06:16:32;13.80;99.90
58554;DHT22;48119;53.218;6.576;2023-05-07T06:18:58;13.80;99.90
58554;DHT22;48119;53.218;6.576;2023-05-07T06:21:24;13.90;99.90
58554;DHT22;48119;53.218;6.576;2023-05-07T06:23:50;13.90;99.90
58554;DHT22;48119;53.218;6.576;2023-05-07T06:26:17;13.90;99.90
58554;DHT22;48119;53.218;6.576;2023-05-07T06:28:43;13.90;99.90
58554;DHT22;48119;53.218;6.576;2023-05-07T06:31:16;13.90;99.90
58554;DHT22;48119;53.218;6.576;2023-05-07T06:33:44;13.90;99.90
58554;DHT22;48119;53.218;6.576;2023-05-07T06:36:09;13.90;99.90
58554;DHT22;48119;53.218;6.576;2023-05-07T06:38:35;13.80;99.90
58554;DHT22;48119;53.218;6.576;2023-05-07T06:41:01;13.80;99.90
58554;DHT22;48119;53.218;6.576;2023-05-07T06:43:27;13.80;99.90
58554;DHT22;48119;53.218;6.576;2023-05-07T06:45:53;13.80;99.90
58554;DHT22;48119;53.218;6.576;2023-05-07T06:48:19;13.80;99.90
58554;DHT22;48119;53.218;6.576;2023-05-07T06:50:44;13.80;99.90
58554;DHT22;48119;53.218;6.576;2023-05-07T06:53:11;13.80;99.90
58554;DHT22;48119;53.218;6.576;2023-05-07T06:55:37;13.70;99.90
58554;DHT22;48119;53.218;6.576;2023-05-07T06:58:04;13.70;99.90
58554;DHT22;48119;53.218;6.576;2023-05-07T07:00:29;13.70;99.90
58554;DHT22;48119;53.218;6.576;2023-05-07T07:02:56;13.70;99.90
58554;DHT22;48119;53.218;6.576;2023-05-07T07:05:22;13.80;99.90
58554;DHT22;48119;53.218;6.576;2023-05-07T07:07:48;13.70;99.90
58554;DHT22;48119;53.218;6.576;2023-05-07T07:10:21;13.80;99.90
58554;DHT22;48119;53.218;6.576;2023-05-07T07:12:48;13.80;99.90
58554;DHT22;48119;53.218;6.576;2023-05-07T07:15:14;13.80;99.90
58554;DHT22;48119;53.218;6.576;2023-05-07T07:17:40;13.70;99.90
58554;DHT22;48119;53.218;6.576;2023-05-07T07:20:07;13.70;99.90
58554;DHT22;48119;53.218;6.576;2023-05-07T07:22:33;13.70;99.90
58554;DHT22;48119;53.218;6.576;2023-05-07T07:24:58;13.70;99.90
58554;DHT22;48119;53.218;6.576;2023-05-07T07:27:24;13.60;99.90
58554;DHT22;48119;53.218;6.576;2023-05-07T07:29:50;13.70;99.90
58554;DHT22;48119;53.218;6.576;2023-05-07T07:32:16;13.70;99.90
58554;DHT22;48119;53.218;6.576;2023-05-07T07:34:42;13.70;99.90
58554;DHT22;48119;53.218;6.576;2023-05-07T07:37:07;13.70;99.90
58554;DHT22;48119;53.218;6.576;2023-05-07T07:39:33;13.70;99.90
58554;DHT22;48119;53.218;6.576;2023-05-07T07:41:59;13.70;99.90
58554;DHT22;48119;53.218;6.576;2023-05-07T07:44:26;13.70;99.90
58554;DHT22;48119;53.218;6.576;2023-05-07T07:46:52;13.70;99.90
58554;DHT22;48119;53.218;6.576;2023-05-07T07:49:18;13.70;99.90
58554;DHT22;48119;53.218;6.576;2023-05-07T07:51:44;13.70;99.90
58554;DHT22;48119;53.218;6.576;2023-05-07T07:54:10;13.70;99.90
58554;DHT22;48119;53.218;6.576;2023-05-07T07:56:37;13.70;99.90
58554;DHT22;48119;53.218;6.576;2023-05-07T07:59:04;13.70;99.90
58554;DHT22;48119;53.218;6.576;2023-05-07T08:01:30;13.70;99.90
58554;DHT22;48119;53.218;6.576;2023-05-07T08:03:56;13.70;99.90
58554;DHT22;48119;53.218;6.576;2023-05-07T08:06:24;13.80;99.90
58554;DHT22;48119;53.218;6.576;2023-05-07T08:08:51;13.70;99.90
58554;DHT22;48119;53.218;6.576;2023-05-07T08:11:17;13.70;99.90
58554;DHT22;48119;53.218;6.576;2023-05-07T08:13:43;13.70;99.90
58554;DHT22;48119;53.218;6.576;2023-05-07T08:16:09;13.80;99.90
58554;DHT22;48119;53.218;6.576;2023-05-07T08:18:35;13.80;99.90
58554;DHT22;48119;53.218;6.576;2023-05-07T08:21:01;13.80;99.90
58554;DHT22;48119;53.218;6.576;2023-05-07T08:23:27;13.90;99.90
58554;DHT22;48119;53.218;6.576;2023-05-07T08:25:53;13.80;99.90
58554;DHT22;48119;53.218;6.576;2023-05-07T08:28:19;13.80;99.90
58554;DHT22;48119;53.218;6.576;2023-05-07T08:30:45;13.90;99.90
58554;DHT22;48119;53.218;6.576;2023-05-07T08:33:12;13.90;99.90
58554;DHT22;48119;53.218;6.576;2023-05-07T08:35:38;13.90;99.90
58554;DHT22;48119;53.218;6.576;2023-05-07T08:38:04;13.90;99.90
58554;DHT22;48119;53.218;6.576;2023-05-07T08:40:33;13.90;99.90
58554;DHT22;48119;53.218;6.576;2023-05-07T08:43:02;13.90;99.90
58554;DHT22;48119;53.218;6.576;2023-05-07T08:45:30;14.00;99.90
58554;DHT22;48119;53.218;6.576;2023-05-07T08:48:00;14.00;99.90
58554;DHT22;48119;53.218;6.576;2023-05-07T08:50:27;14.00;99.90
58554;DHT22;48119;53.218;6.576;2023-05-07T08:52:53;14.00;99.90
58554;DHT22;48119;53.218;6.576;2023-05-07T08:55:20;14.00;99.90
58554;DHT22;48119;53.218;6.576;2023-05-07T08:57:46;14.00;99.90
58554;DHT22;48119;53.218;6.576;2023-05-07T09:00:13;14.10;99.90
58554;DHT22;48119;53.218;6.576;2023-05-07T09:02:40;14.10;99.90
58554;DHT22;48119;53.218;6.576;2023-05-07T09:05:06;14.10;99.90
58554;DHT22;48119;53.218;6.576;2023-05-07T09:07:32;14.10;99.90
58554;DHT22;48119;53.218;6.576;2023-05-07T09:09:58;14.10;99.90
58554;DHT22;48119;53.218;6.576;2023-05-07T09:12:26;14.10;99.90
58554;DHT22;48119;53.218;6.576;2023-05-07T09:14:52;14.10;99.90
58554;DHT22;48119;53.218;6.576;2023-05-07T09:17:17;14.10;99.90
58554;DHT22;48119;53.218;6.576;2023-05-07T09:19:44;14.20;99.90
58554;DHT22;48119;53.218;6.576;2023-05-07T09:22:11;14.30;99.90
58554;DHT22;48119;53.218;6.576;2023-05-07T09:24:37;14.30;99.90
58554;DHT22;48119;53.218;6.576;2023-05-07T09:27:04;14.30;99.90
58554;DHT22;48119;53.218;6.576;2023-05-07T09:29:32;14.30;99.90
58554;DHT22;48119;53.218;6.576;2023-05-07T09:32:02;14.30;99.90
58554;DHT22;48119;53.218;6.576;2023-05-07T09:34:29;14.40;99.90
58554;DHT22;48119;53.218;6.576;2023-05-07T09:36:56;14.40;99.90
58554;DHT22;48119;53.218;6.576;2023-05-07T09:39:23;14.30;99.90
58554;DHT22;48119;53.218;6.576;2023-05-07T09:41:49;14.30;99.90
58554;DHT22;48119;53.218;6.576;2023-05-07T09:44:17;14.30;99.90
58554;DHT22;48119;53.218;6.576;2023-05-07T09:46:44;14.40;99.90
58554;DHT22;48119;53.218;6.576;2023-05-07T09:49:21;14.40;99.90
58554;DHT22;48119;53.218;6.576;2023-05-07T09:51:51;14.50;99.90
58554;DHT22;48119;53.218;6.576;2023-05-07T09:54:18;14.50;99.90
58554;DHT22;48119;53.218;6.576;2023-05-07T09:56:52;14.50;99.90
58554;DHT22;48119;53.218;6.576;2023-05-07T09:59:18;14.50;99.90
58554;DHT22;48119;53.218;6.576;2023-05-07T10:01:46;14.50;99.90
58554;DHT22;48119;53.218;6.576;2023-05-07T10:04:12;14.50;99.90
58554;DHT22;48119;53.218;6.576;2023-05-07T10:06:38;14.60;99.90
58554;DHT22;48119;53.218;6.576;2023-05-07T10:09:05;14.60;99.90
58554;DHT22;48119;53.218;6.576;2023-05-07T10:11:34;14.60;99.90
58554;DHT22;48119;53.218;6.576;2023-05-07T10:14:04;14.60;99.90
58554;DHT22;48119;53.218;6.576;2023-05-07T10:16:35;14.60;99.90
58554;DHT22;48119;53.218;6.576;2023-05-07T10:19:05;14.60;99.90
58554;DHT22;48119;53.218;6.576;2023-05-07T10:21:35;14.60;99.90
58554;DHT22;48119;53.218;6.576;2023-05-07T10:24:39;14.70;99.90
58554;DHT22;48119;53.218;6.576;2023-05-07T10:27:10;14.70;99.90
58554;DHT22;48119;53.218;6.576;2023-05-07T10:32:44;14.70;99.90
58554;DHT22;48119;53.218;6.576;2023-05-07T10:35:16;14.70;99.90
58554;DHT22;48119;53.218;6.576;2023-05-07T10:37:44;14.70;99.90
58554;DHT22;48119;53.218;6.576;2023-05-07T10:40:11;14.70;99.90
58554;DHT22;48119;53.218;6.576;2023-05-07T10:42:37;14.80;99.90
58554;DHT22;48119;53.218;6.576;2023-05-07T10:45:13;14.80;99.90
58554;DHT22;48119;53.218;6.576;2023-05-07T10:48:12;14.80;99.90
58554;DHT22;48119;53.218;6.576;2023-05-07T10:50:40;14.80;99.90
58554;DHT22;48119;53.218;6.576;2023-05-07T10:58:27;15.00;99.90
58554;DHT22;48119;53.218;6.576;2023-05-07T11:00:58;15.00;99.90
58554;DHT22;48119;53.218;6.576;2023-05-07T11:03:24;15.00;99.90
58554;DHT22;48119;53.218;6.576;2023-05-07T11:06:13;15.10;99.90
58554;DHT22;48119;53.218;6.576;2023-05-07T11:08:58;15.10;99.90
58554;DHT22;48119;53.218;6.576;2023-05-07T11:11:49;15.20;99.90
58554;DHT22;48119;53.218;6.576;2023-05-07T11:14:43;15.20;99.90
58554;DHT22;48119;53.218;6.576;2023-05-07T11:17:10;15.30;99.90
58554;DHT22;48119;53.218;6.576;2023-05-07T11:20:02;15.30;99.90
58554;DHT22;48119;53.218;6.576;2023-05-07T11:25:05;15.40;99.90
58554;DHT22;48119;53.218;6.576;2023-05-07T11:27:32;15.50;99.90
58554;DHT22;48119;53.218;6.576;2023-05-07T11:29:58;15.50;99.90
58554;DHT22;48119;53.218;6.576;2023-05-07T11:32:25;15.50;99.90
58554;DHT22;48119;53.218;6.576;2023-05-07T11:34:56;15.60;99.90
58554;DHT22;48119;53.218;6.576;2023-05-07T11:37:22;15.60;99.90
58554;DHT22;48119;53.218;6.576;2023-05-07T11:39:49;15.60;99.90
58554;DHT22;48119;53.218;6.576;2023-05-07T11:42:30;15.60;99.90
58554;DHT22;48119;53.218;6.576;2023-05-07T11:44:56;15.70;99.90
58554;DHT22;48119;53.218;6.576;2023-05-07T11:47:22;15.70;99.90
58554;DHT22;48119;53.218;6.576;2023-05-07T11:49:53;15.80;99.90
58554;DHT22;48119;53.218;6.576;2023-05-07T11:52:22;15.80;99.90
58554;DHT22;48119;53.218;6.576;2023-05-07T11:54:53;15.80;99.90
58554;DHT22;48119;53.218;6.576;2023-05-07T11:57:19;15.80;99.90
58554;DHT22;48119;53.218;6.576;2023-05-07T11:59:45;15.80;99.90
58554;DHT22;48119;53.218;6.576;2023-05-07T12:02:14;15.90;99.90
58554;DHT22;48119;53.218;6.576;2023-05-07T12:04:41;15.90;99.90
58554;DHT22;48119;53.218;6.576;2023-05-07T12:07:16;15.90;99.90
58554;DHT22;48119;53.218;6.576;2023-05-07T12:09:45;16.00;99.90
58554;DHT22;48119;53.218;6.576;2023-05-07T12:12:11;16.00;99.90
58554;DHT22;48119;53.218;6.576;2023-05-07T12:14:42;16.00;99.90
58554;DHT22;48119;53.218;6.576;2023-05-07T12:17:10;16.00;99.90
58554;DHT22;48119;53.218;6.576;2023-05-07T12:19:37;16.00;99.90
58554;DHT22;48119;53.218;6.576;2023-05-07T12:22:04;16.00;99.90
58554;DHT22;48119;53.218;6.576;2023-05-07T12:24:49;16.10;99.90
58554;DHT22;48119;53.218;6.576;2023-05-07T12:27:21;16.10;99.90
58554;DHT22;48119;53.218;6.576;2023-05-07T12:29:48;16.10;99.90
58554;DHT22;48119;53.218;6.576;2023-05-07T12:32:19;16.10;99.90
58554;DHT22;48119;53.218;6.576;2023-05-07T12:34:47;16.10;99.90
58554;DHT22;48119;53.218;6.576;2023-05-07T12:37:15;16.10;99.90
58554;DHT22;48119;53.218;6.576;2023-05-07T12:39:47;16.10;99.90
58554;DHT22;48119;53.218;6.576;2023-05-07T12:42:19;16.10;99.90
58554;DHT22;48119;53.218;6.576;2023-05-07T12:44:46;16.20;99.90
58554;DHT22;48119;53.218;6.576;2023-05-07T12:47:12;16.20;99.90
58554;DHT22;48119;53.218;6.576;2023-05-07T12:49:38;16.20;99.90
58554;DHT22;48119;53.218;6.576;2023-05-07T12:52:05;16.20;99.90
58554;DHT22;48119;53.218;6.576;2023-05-07T12:54:37;16.30;99.90
58554;DHT22;48119;53.218;6.576;2023-05-07T12:57:08;16.30;99.90
58554;DHT22;48119;53.218;6.576;2023-05-07T12:59:41;16.30;99.90
58554;DHT22;48119;53.218;6.576;2023-05-07T13:02:13;16.40;99.90
58554;DHT22;48119;53.218;6.576;2023-05-07T13:04:38;16.40;99.90
58554;DHT22;48119;53.218;6.576;2023-05-07T13:07:04;16.50;99.90
58554;DHT22;48119;53.218;6.576;2023-05-07T13:09:31;16.50;99.90
58554;DHT22;48119;53.218;6.576;2023-05-07T13:11:57;16.50;99.90
58554;DHT22;48119;53.218;6.576;2023-05-07T13:14:25;16.60;99.90
58554;DHT22;48119;53.218;6.576;2023-05-07T13:16:51;16.60;99.90
58554;DHT22;48119;53.218;6.576;2023-05-07T13:19:16;16.70;99.90
58554;DHT22;48119;53.218;6.576;2023-05-07T13:21:42;16.70;99.90
58554;DHT22;48119;53.218;6.576;2023-05-07T13:24:08;16.70;99.90
58554;DHT22;48119;53.218;6.576;2023-05-07T13:26:34;16.80;99.90
58554;DHT22;48119;53.218;6.576;2023-05-07T13:29:00;16.80;99.90
58554;DHT22;48119;53.218;6.576;2023-05-07T13:31:26;16.80;99.90
58554;DHT22;48119;53.218;6.576;2023-05-07T13:33:52;16.80;99.90
58554;DHT22;48119;53.218;6.576;2023-05-07T13:36:18;16.80;99.90
58554;DHT22;48119;53.218;6.576;2023-05-07T13:38:44;16.90;99.90
58554;DHT22;48119;53.218;6.576;2023-05-07T13:41:10;16.90;99.90
58554;DHT22;48119;53.218;6.576;2023-05-07T13:43:35;16.90;99.90
58554;DHT22;48119;53.218;6.576;2023-05-07T13:46:01;16.90;99.90
58554;DHT22;48119;53.218;6.576;2023-05-07T13:48:27;17.00;99.90
58554;DHT22;48119;53.218;6.576;2023-05-07T13:50:53;17.00;99.90
58554;DHT22;48119;53.218;6.576;2023-05-07T13:53:19;17.00;99.90
58554;DHT22;48119;53.218;6.576;2023-05-07T13:55:45;17.00;99.90
58554;DHT22;48119;53.218;6.576;2023-05-07T13:58:11;17.00;99.90
58554;DHT22;48119;53.218;6.576;2023-05-07T14:00:37;17.00;99.90
58554;DHT22;48119;53.218;6.576;2023-05-07T14:03:04;17.10;99.90
58554;DHT22;48119;53.218;6.576;2023-05-07T14:05:30;17.10;99.90
58554;DHT22;48119;53.218;6.576;2023-05-07T14:07:59;17.10;99.90
58554;DHT22;48119;53.218;6.576;2023-05-07T14:10:25;17.10;99.90
58554;DHT22;48119;53.218;6.576;2023-05-07T14:12:51;17.10;99.90
58554;DHT22;48119;53.218;6.576;2023-05-07T14:15:18;17.10;99.90
58554;DHT22;48119;53.218;6.576;2023-05-07T14:17:44;17.10;99.90
58554;DHT22;48119;53.218;6.576;2023-05-07T14:20:11;17.20;99.90
58554;DHT22;48119;53.218;6.576;2023-05-07T14:22:37;17.20;99.90
58554;DHT22;48119;53.218;6.576;2023-05-07T14:25:03;17.20;99.90
58554;DHT22;48119;53.218;6.576;2023-05-07T14:27:29;17.20;99.90
58554;DHT22;48119;53.218;6.576;2023-05-07T14:29:55;17.30;99.90
58554;DHT22;48119;53.218;6.576;2023-05-07T14:32:21;17.30;99.90
58554;DHT22;48119;53.218;6.576;2023-05-07T14:34:47;17.20;99.90
58554;DHT22;48119;53.218;6.576;2023-05-07T14:37:13;17.30;99.90
58554;DHT22;48119;53.218;6.576;2023-05-07T14:39:39;17.20;99.90
58554;DHT22;48119;53.218;6.576;2023-05-07T14:42:05;17.30;99.90
58554;DHT22;48119;53.218;6.576;2023-05-07T14:44:36;17.30;99.90
58554;DHT22;48119;53.218;6.576;2023-05-07T14:47:02;17.40;99.90
58554;DHT22;48119;53.218;6.576;2023-05-07T14:49:27;17.40;99.90
58554;DHT22;48119;53.218;6.576;2023-05-07T14:51:53;17.40;99.90
58554;DHT22;48119;53.218;6.576;2023-05-07T14:54:19;17.40;99.90
58554;DHT22;48119;53.218;6.576;2023-05-07T14:56:45;17.40;99.90
58554;DHT22;48119;53.218;6.576;2023-05-07T14:59:11;17.50;99.90
58554;DHT22;48119;53.218;6.576;2023-05-07T15:01:42;17.50;99.90
58554;DHT22;48119;53.218;6.576;2023-05-07T15:04:10;17.50;99.90
58554;DHT22;48119;53.218;6.576;2023-05-07T15:06:36;17.50;99.90
58554;DHT22;48119;53.218;6.576;2023-05-07T15:09:02;17.50;99.90
58554;DHT22;48119;53.218;6.576;2023-05-07T15:11:28;17.50;99.90
58554;DHT22;48119;53.218;6.576;2023-05-07T15:13:54;17.50;99.90
58554;DHT22;48119;53.218;6.576;2023-05-07T15:16:20;17.50;99.90
58554;DHT22;48119;53.218;6.576;2023-05-07T15:18:46;17.50;99.90
58554;DHT22;48119;53.218;6.576;2023-05-07T15:21:12;17.50;99.90
58554;DHT22;48119;53.218;6.576;2023-05-07T15:23:38;17.60;99.90
58554;DHT22;48119;53.218;6.576;2023-05-07T15:26:04;17.60;99.90
58554;DHT22;48119;53.218;6.576;2023-05-07T15:28:30;17.60;99.90
58554;DHT22;48119;53.218;6.576;2023-05-07T15:30:56;17.60;99.90
58554;DHT22;48119;53.218;6.576;2023-05-07T15:33:24;17.60;99.90
58554;DHT22;48119;53.218;6.576;2023-05-07T15:35:50;17.60;99.90
58554;DHT22;48119;53.218;6.576;2023-05-07T15:38:16;17.60;99.90
58554;DHT22;48119;53.218;6.576;2023-05-07T15:40:41;17.60;99.90